createdAt,value
2023-02-01T00:00:03.254Z,85.3
2023-02-01T00:15:02.696Z,85.5
2023-02-01T00:30:03.164Z,84.9
2023-02-01T00:45:02.561Z,84.4
2023-02-01T01:00:03.011Z,83.6
2023-02-01T01:15:02.547Z,83.4
2023-02-01T01:30:02.856Z,83.3
2023-02-01T01:45:02.466Z,82.8
2023-02-01T02:00:02.760Z,83.1
2023-02-01T02:15:03.206Z,83.4
2023-02-01T02:30:02.665Z,83.5
2023-02-01T02:45:03.086Z,83.1
2023-02-01T03:00:02.573Z,82.6
2023-02-01T03:15:02.960Z,82.5
2023-02-01T03:30:02.602Z,82.1
2023-02-01T03:45:02.850Z,82.0
2023-02-01T04:00:02.276Z,82.2
2023-02-01T04:15:02.732Z,83.2
2023-02-01T04:30:03.167Z,84.8
2023-02-01T04:45:02.591Z,85.8
2023-02-01T05:00:03.048Z,87.1
2023-02-01T05:15:02.613Z,88.1
2023-02-01T05:30:02.912Z,89.7
2023-02-01T05:45:02.366Z,90.7
2023-02-01T06:00:02.820Z,90.8
2023-02-01T06:15:03.252Z,90.7
2023-02-01T06:30:02.681Z,90.0
2023-02-01T06:45:03.101Z,88.4
2023-02-01T07:00:02.708Z,86.7
2023-02-01T07:15:03.036Z,85.3
2023-02-01T07:30:02.629Z,83.9
2023-02-01T07:45:19.930Z,83.1
2023-02-01T08:00:02.314Z,82.7
2023-02-01T08:15:02.771Z,82.3
2023-02-01T08:30:02.206Z,83.1
2023-02-01T08:45:02.669Z,83.3
2023-02-01T09:00:03.090Z,82.0
2023-02-01T09:15:02.720Z,80.1
2023-02-01T09:30:02.953Z,78.5
2023-02-01T09:45:02.377Z,77.5
2023-02-01T10:00:02.811Z,77.5
2023-02-01T10:15:03.271Z,77.7
2023-02-01T10:30:02.762Z,77.6
2023-02-01T10:45:03.140Z,78.0
2023-02-01T11:00:02.737Z,78.2
2023-02-01T11:15:03.016Z,79.4
2023-02-01T11:30:02.434Z,83.3
2023-02-01T11:45:04.643Z,86.6
2023-02-01T12:00:02.324Z,89.2
2023-02-01T12:15:02.785Z,91.1
2023-02-01T12:30:02.219Z,92.8
2023-02-01T12:45:02.727Z,94.1
2023-02-01T13:00:03.080Z,94.4
2023-02-01T13:15:02.711Z,95.2
2023-02-01T13:30:02.938Z,95.8
2023-02-01T13:45:02.354Z,96.5
2023-02-01T14:00:02.790Z,96.5
2023-02-01T14:15:03.210Z,96.2
2023-02-01T14:30:02.749Z,95.7
2023-02-01T14:45:03.081Z,95.2
2023-02-01T15:00:02.695Z,94.5
2023-02-01T15:15:02.979Z,93.6
2023-02-01T15:30:02.378Z,92.7
2023-02-01T15:45:02.862Z,93.3
2023-02-01T16:00:02.448Z,93.5
2023-02-01T16:15:02.788Z,91.1
2023-02-01T16:30:02.164Z,93.2
2023-02-01T16:45:02.805Z,93.3
2023-02-01T17:00:11.624Z,92.7
2023-02-01T17:15:02.462Z,92.0
2023-02-01T17:30:02.907Z,91.7
2023-02-01T17:45:02.308Z,91.2
2023-02-01T18:00:02.816Z,90.9
2023-02-01T18:15:03.182Z,89.1
2023-02-01T18:30:02.820Z,87.3
2023-02-01T18:45:03.049Z,85.8
2023-02-01T19:00:02.473Z,86.1
2023-02-01T19:15:02.912Z,85.7
2023-02-01T19:30:02.334Z,84.9
2023-02-01T19:45:02.830Z,85.3
2023-02-01T20:00:03.227Z,85.5
2023-02-01T20:15:01.998Z,86.3
2023-02-01T20:30:02.165Z,86.8
2023-02-01T20:45:02.554Z,87.7
2023-02-01T21:00:03.028Z,87.8
2023-02-01T21:15:02.465Z,87.3
2023-02-01T21:30:02.907Z,86.6
2023-02-01T21:45:02.361Z,85.5
2023-02-01T22:00:02.919Z,84.7
2023-02-01T22:15:02.196Z,84.9
2023-02-01T22:30:02.664Z,85.8
2023-02-01T22:45:03.090Z,86.5
2023-02-01T23:00:02.500Z,86.7
2023-02-01T23:30:02.415Z,88.7
2023-02-01T23:45:02.909Z,89.9
